sensor_id;sensor_type;location;lat;lon;timestamp;P1;durP1;ratioP1;P2;durP2;ratioP2
58141;SDS011;53186;47.382;18.904;2022-07-17T00:02:23;2.97;;;1.17;;
58141;SDS011;53186;47.382;18.904;2022-07-17T00:04:51;2.55;;;1.10;;
58141;SDS011;53186;47.382;18.904;2022-07-17T00:07:18;3.20;;;1.17;;
58141;SDS011;53186;47.382;18.904;2022-07-17T00:09:45;2.83;;;1.30;;
58141;SDS011;53186;47.382;18.904;2022-07-17T00:12:13;3.03;;;1.50;;
58141;SDS011;53186;47.382;18.904;2022-07-17T00:14:40;4.03;;;1.20;;
58141;SDS011;53186;47.382;18.904;2022-07-17T00:17:07;2.90;;;1.00;;
58141;SDS011;53186;47.382;18.904;2022-07-17T00:19:34;3.95;;;1.30;;
58141;SDS011;53186;47.382;18.904;2022-07-17T00:22:02;3.28;;;1.17;;
58141;SDS011;53186;47.382;18.904;2022-07-17T00:24:29;4.00;;;1.23;;
58141;SDS011;53186;47.382;18.904;2022-07-17T00:26:56;2.35;;;1.05;;
58141;SDS011;53186;47.382;18.904;2022-07-17T00:29:23;3.30;;;1.08;;
58141;SDS011;53186;47.382;18.904;2022-07-17T00:31:51;2.45;;;1.15;;
58141;SDS011;53186;47.382;18.904;2022-07-17T00:34:18;2.58;;;1.00;;
58141;SDS011;53186;47.382;18.904;2022-07-17T00:36:47;2.72;;;1.08;;
58141;SDS011;53186;47.382;18.904;2022-07-17T00:39:14;2.92;;;1.37;;
58141;SDS011;53186;47.382;18.904;2022-07-17T00:41:45;2.30;;;1.05;;
58141;SDS011;53186;47.382;18.904;2022-07-17T00:44:12;3.08;;;1.25;;
58141;SDS011;53186;47.382;18.904;2022-07-17T00:46:39;4.37;;;1.12;;
58141;SDS011;53186;47.382;18.904;2022-07-17T00:49:08;2.22;;;1.10;;
58141;SDS011;53186;47.382;18.904;2022-07-17T00:51:35;2.37;;;1.20;;
58141;SDS011;53186;47.382;18.904;2022-07-17T00:54:03;2.87;;;1.00;;
58141;SDS011;53186;47.382;18.904;2022-07-17T00:56:36;2.40;;;1.40;;
58141;SDS011;53186;47.382;18.904;2022-07-17T00:59:04;2.22;;;1.10;;
58141;SDS011;53186;47.382;18.904;2022-07-17T01:01:33;2.03;;;1.10;;
58141;SDS011;53186;47.382;18.904;2022-07-17T01:04:00;2.33;;;0.98;;
58141;SDS011;53186;47.382;18.904;2022-07-17T01:06:27;3.25;;;1.27;;
58141;SDS011;53186;47.382;18.904;2022-07-17T01:08:54;2.55;;;1.23;;
58141;SDS011;53186;47.382;18.904;2022-07-17T01:11:22;3.28;;;1.20;;
58141;SDS011;53186;47.382;18.904;2022-07-17T01:13:49;2.15;;;1.17;;
58141;SDS011;53186;47.382;18.904;2022-07-17T01:16:16;4.65;;;1.30;;
58141;SDS011;53186;47.382;18.904;2022-07-17T01:18:44;4.85;;;1.58;;
58141;SDS011;53186;47.382;18.904;2022-07-17T01:21:11;5.53;;;1.42;;
58141;SDS011;53186;47.382;18.904;2022-07-17T01:23:38;2.90;;;1.30;;
58141;SDS011;53186;47.382;18.904;2022-07-17T01:26:06;2.20;;;1.27;;
58141;SDS011;53186;47.382;18.904;2022-07-17T01:28:33;3.70;;;1.40;;
58141;SDS011;53186;47.382;18.904;2022-07-17T01:31:00;2.35;;;1.20;;
58141;SDS011;53186;47.382;18.904;2022-07-17T01:33:30;3.70;;;1.20;;
58141;SDS011;53186;47.382;18.904;2022-07-17T01:35:57;2.70;;;1.00;;
58141;SDS011;53186;47.382;18.904;2022-07-17T01:38:24;2.12;;;1.30;;
58141;SDS011;53186;47.382;18.904;2022-07-17T01:40:52;2.87;;;1.27;;
58141;SDS011;53186;47.382;18.904;2022-07-17T01:43:19;1.90;;;1.10;;
58141;SDS011;53186;47.382;18.904;2022-07-17T01:45:46;2.70;;;1.27;;
58141;SDS011;53186;47.382;18.904;2022-07-17T01:48:24;2.37;;;1.30;;
58141;SDS011;53186;47.382;18.904;2022-07-17T01:50:52;4.82;;;1.30;;
58141;SDS011;53186;47.382;18.904;2022-07-17T01:53:20;4.62;;;1.10;;
58141;SDS011;53186;47.382;18.904;2022-07-17T01:55:48;1.87;;;1.20;;
58141;SDS011;53186;47.382;18.904;2022-07-17T01:58:15;1.75;;;1.10;;
58141;SDS011;53186;47.382;18.904;2022-07-17T02:00:42;1.48;;;1.10;;
58141;SDS011;53186;47.382;18.904;2022-07-17T02:03:10;2.00;;;1.08;;
58141;SDS011;53186;47.382;18.904;2022-07-17T02:05:38;2.00;;;0.80;;
58141;SDS011;53186;47.382;18.904;2022-07-17T02:08:05;2.25;;;1.35;;
58141;SDS011;53186;47.382;18.904;2022-07-17T02:10:33;1.83;;;1.00;;
58141;SDS011;53186;47.382;18.904;2022-07-17T02:13:00;4.90;;;1.37;;
58141;SDS011;53186;47.382;18.904;2022-07-17T02:15:27;3.15;;;1.00;;
58141;SDS011;53186;47.382;18.904;2022-07-17T02:17:55;6.65;;;1.40;;
58141;SDS011;53186;47.382;18.904;2022-07-17T02:20:23;7.10;;;1.50;;
58141;SDS011;53186;47.382;18.904;2022-07-17T02:22:50;7.45;;;1.27;;
58141;SDS011;53186;47.382;18.904;2022-07-17T02:25:18;2.85;;;1.30;;
58141;SDS011;53186;47.382;18.904;2022-07-17T02:27:45;1.87;;;0.80;;
58141;SDS011;53186;47.382;18.904;2022-07-17T02:30:16;5.47;;;1.05;;
58141;SDS011;53186;47.382;18.904;2022-07-17T02:32:44;1.77;;;1.00;;
58141;SDS011;53186;47.382;18.904;2022-07-17T02:35:12;2.35;;;1.20;;
58141;SDS011;53186;47.382;18.904;2022-07-17T02:37:39;1.60;;;1.08;;
58141;SDS011;53186;47.382;18.904;2022-07-17T02:40:09;4.68;;;1.10;;
58141;SDS011;53186;47.382;18.904;2022-07-17T02:42:37;2.25;;;1.15;;
58141;SDS011;53186;47.382;18.904;2022-07-17T02:45:04;2.45;;;0.90;;
58141;SDS011;53186;47.382;18.904;2022-07-17T02:47:34;2.00;;;1.00;;
58141;SDS011;53186;47.382;18.904;2022-07-17T02:50:03;2.17;;;0.98;;
58141;SDS011;53186;47.382;18.904;2022-07-17T02:52:33;4.68;;;1.10;;
58141;SDS011;53186;47.382;18.904;2022-07-17T02:55:00;1.95;;;1.25;;
58141;SDS011;53186;47.382;18.904;2022-07-17T02:57:27;2.65;;;1.10;;
58141;SDS011;53186;47.382;18.904;2022-07-17T02:59:55;3.58;;;1.10;;
58141;SDS011;53186;47.382;18.904;2022-07-17T03:02:22;2.72;;;1.02;;
58141;SDS011;53186;47.382;18.904;2022-07-17T03:04:49;5.57;;;1.20;;
58141;SDS011;53186;47.382;18.904;2022-07-17T03:07:17;8.43;;;3.30;;
58141;SDS011;53186;47.382;18.904;2022-07-17T03:09:44;2.83;;;1.20;;
58141;SDS011;53186;47.382;18.904;2022-07-17T03:12:11;3.30;;;1.20;;
58141;SDS011;53186;47.382;18.904;2022-07-17T03:14:39;3.12;;;1.30;;
58141;SDS011;53186;47.382;18.904;2022-07-17T03:17:06;4.68;;;1.30;;
58141;SDS011;53186;47.382;18.904;2022-07-17T03:19:33;2.58;;;1.17;;
58141;SDS011;53186;47.382;18.904;2022-07-17T03:22:01;4.68;;;1.25;;
58141;SDS011;53186;47.382;18.904;2022-07-17T03:24:29;5.35;;;1.00;;
58141;SDS011;53186;47.382;18.904;2022-07-17T03:26:56;4.70;;;1.12;;
58141;SDS011;53186;47.382;18.904;2022-07-17T03:29:24;2.45;;;1.23;;
58141;SDS011;53186;47.382;18.904;2022-07-17T03:31:51;2.83;;;1.30;;
58141;SDS011;53186;47.382;18.904;2022-07-17T03:34:18;3.15;;;1.10;;
58141;SDS011;53186;47.382;18.904;2022-07-17T03:36:46;5.50;;;1.30;;
58141;SDS011;53186;47.382;18.904;2022-07-17T03:39:14;2.12;;;1.00;;
58141;SDS011;53186;47.382;18.904;2022-07-17T03:41:42;3.55;;;1.12;;
58141;SDS011;53186;47.382;18.904;2022-07-17T03:44:09;4.18;;;1.05;;
58141;SDS011;53186;47.382;18.904;2022-07-17T03:46:36;2.40;;;0.90;;
58141;SDS011;53186;47.382;18.904;2022-07-17T03:49:04;4.03;;;0.98;;
58141;SDS011;53186;47.382;18.904;2022-07-17T03:51:31;5.05;;;1.12;;
58141;SDS011;53186;47.382;18.904;2022-07-17T03:53:58;3.78;;;1.17;;
58141;SDS011;53186;47.382;18.904;2022-07-17T03:56:25;2.65;;;1.10;;
58141;SDS011;53186;47.382;18.904;2022-07-17T03:58:53;3.53;;;1.40;;
58141;SDS011;53186;47.382;18.904;2022-07-17T04:01:20;2.85;;;1.30;;
58141;SDS011;53186;47.382;18.904;2022-07-17T04:03:48;1.40;;;0.93;;
58141;SDS011;53186;47.382;18.904;2022-07-17T04:06:15;2.28;;;1.12;;
58141;SDS011;53186;47.382;18.904;2022-07-17T04:08:42;1.83;;;1.08;;
58141;SDS011;53186;47.382;18.904;2022-07-17T04:11:10;2.40;;;1.30;;
58141;SDS011;53186;47.382;18.904;2022-07-17T04:13:37;3.10;;;0.93;;
58141;SDS011;53186;47.382;18.904;2022-07-17T04:16:04;2.42;;;1.20;;
58141;SDS011;53186;47.382;18.904;2022-07-17T04:18:34;6.45;;;1.12;;
58141;SDS011;53186;47.382;18.904;2022-07-17T04:21:03;2.80;;;1.00;;
58141;SDS011;53186;47.382;18.904;2022-07-17T04:23:32;4.37;;;0.90;;
58141;SDS011;53186;47.382;18.904;2022-07-17T04:25:59;3.08;;;1.10;;
58141;SDS011;53186;47.382;18.904;2022-07-17T04:28:26;2.25;;;1.00;;
58141;SDS011;53186;47.382;18.904;2022-07-17T04:30:54;5.03;;;0.90;;
58141;SDS011;53186;47.382;18.904;2022-07-17T04:33:21;3.03;;;1.10;;
58141;SDS011;53186;47.382;18.904;2022-07-17T04:35:48;2.17;;;1.02;;
58141;SDS011;53186;47.382;18.904;2022-07-17T04:38:15;2.70;;;1.20;;
58141;SDS011;53186;47.382;18.904;2022-07-17T04:40:43;1.48;;;0.90;;
58141;SDS011;53186;47.382;18.904;2022-07-17T04:43:10;1.73;;;0.93;;
58141;SDS011;53186;47.382;18.904;2022-07-17T04:45:37;3.08;;;0.93;;
58141;SDS011;53186;47.382;18.904;2022-07-17T04:48:05;2.40;;;1.08;;
58141;SDS011;53186;47.382;18.904;2022-07-17T04:50:32;2.10;;;1.00;;
58141;SDS011;53186;47.382;18.904;2022-07-17T04:53:00;2.25;;;0.90;;
58141;SDS011;53186;47.382;18.904;2022-07-17T04:55:27;3.37;;;0.90;;
58141;SDS011;53186;47.382;18.904;2022-07-17T04:57:55;1.85;;;0.95;;
58141;SDS011;53186;47.382;18.904;2022-07-17T05:00:22;1.90;;;0.88;;
58141;SDS011;53186;47.382;18.904;2022-07-17T05:02:49;2.17;;;0.80;;
58141;SDS011;53186;47.382;18.904;2022-07-17T05:05:17;1.92;;;1.20;;
58141;SDS011;53186;47.382;18.904;2022-07-17T05:07:44;2.90;;;1.00;;
58141;SDS011;53186;47.382;18.904;2022-07-17T05:10:11;3.30;;;0.90;;
58141;SDS011;53186;47.382;18.904;2022-07-17T05:12:38;3.12;;;0.93;;
58141;SDS011;53186;47.382;18.904;2022-07-17T05:15:06;1.77;;;0.98;;
58141;SDS011;53186;47.382;18.904;2022-07-17T05:17:33;2.40;;;0.90;;
58141;SDS011;53186;47.382;18.904;2022-07-17T05:20:00;2.70;;;1.10;;
58141;SDS011;53186;47.382;18.904;2022-07-17T05:22:28;2.97;;;1.42;;
58141;SDS011;53186;47.382;18.904;2022-07-17T05:24:55;1.67;;;0.90;;
58141;SDS011;53186;47.382;18.904;2022-07-17T05:27:22;1.90;;;1.05;;
58141;SDS011;53186;47.382;18.904;2022-07-17T05:29:50;3.85;;;0.95;;
58141;SDS011;53186;47.382;18.904;2022-07-17T05:32:17;2.05;;;1.08;;
58141;SDS011;53186;47.382;18.904;2022-07-17T05:34:44;1.92;;;0.90;;
58141;SDS011;53186;47.382;18.904;2022-07-17T05:37:12;3.05;;;1.00;;
58141;SDS011;53186;47.382;18.904;2022-07-17T05:39:39;3.30;;;0.90;;
58141;SDS011;53186;47.382;18.904;2022-07-17T05:42:06;4.12;;;1.12;;
58141;SDS011;53186;47.382;18.904;2022-07-17T05:44:34;2.05;;;0.93;;
58141;SDS011;53186;47.382;18.904;2022-07-17T05:47:01;1.50;;;0.85;;
58141;SDS011;53186;47.382;18.904;2022-07-17T05:49:28;4.25;;;1.00;;
58141;SDS011;53186;47.382;18.904;2022-07-17T05:51:55;4.47;;;1.10;;
58141;SDS011;53186;47.382;18.904;2022-07-17T05:54:23;2.03;;;0.77;;
58141;SDS011;53186;47.382;18.904;2022-07-17T05:56:50;3.28;;;0.90;;
58141;SDS011;53186;47.382;18.904;2022-07-17T05:59:17;2.83;;;0.98;;
58141;SDS011;53186;47.382;18.904;2022-07-17T06:01:44;2.28;;;0.73;;
58141;SDS011;53186;47.382;18.904;2022-07-17T06:04:12;3.30;;;1.10;;
58141;SDS011;53186;47.382;18.904;2022-07-17T06:06:39;2.80;;;1.00;;
58141;SDS011;53186;47.382;18.904;2022-07-17T06:09:06;4.25;;;0.90;;
58141;SDS011;53186;47.382;18.904;2022-07-17T06:11:34;2.45;;;0.88;;
58141;SDS011;53186;47.382;18.904;2022-07-17T06:14:03;3.65;;;1.10;;
58141;SDS011;53186;47.382;18.904;2022-07-17T06:16:30;2.83;;;1.20;;
58141;SDS011;53186;47.382;18.904;2022-07-17T06:18:58;1.42;;;0.60;;
58141;SDS011;53186;47.382;18.904;2022-07-17T06:21:25;2.03;;;0.90;;
58141;SDS011;53186;47.382;18.904;2022-07-17T06:23:53;1.70;;;0.88;;
58141;SDS011;53186;47.382;18.904;2022-07-17T06:26:20;1.92;;;0.80;;
58141;SDS011;53186;47.382;18.904;2022-07-17T06:28:47;4.25;;;0.90;;
58141;SDS011;53186;47.382;18.904;2022-07-17T06:31:15;2.05;;;0.80;;
58141;SDS011;53186;47.382;18.904;2022-07-17T06:33:43;2.15;;;0.90;;
58141;SDS011;53186;47.382;18.904;2022-07-17T06:36:10;7.65;;;0.90;;
58141;SDS011;53186;47.382;18.904;2022-07-17T06:38:37;2.87;;;0.85;;
58141;SDS011;53186;47.382;18.904;2022-07-17T06:41:05;2.00;;;0.80;;
58141;SDS011;53186;47.382;18.904;2022-07-17T06:43:32;4.95;;;1.02;;
58141;SDS011;53186;47.382;18.904;2022-07-17T06:45:59;3.30;;;0.93;;
58141;SDS011;53186;47.382;18.904;2022-07-17T06:48:27;1.90;;;0.60;;
58141;SDS011;53186;47.382;18.904;2022-07-17T06:50:54;2.97;;;0.70;;
58141;SDS011;53186;47.382;18.904;2022-07-17T06:53:21;3.72;;;0.75;;
58141;SDS011;53186;47.382;18.904;2022-07-17T06:55:48;2.12;;;0.90;;
58141;SDS011;53186;47.382;18.904;2022-07-17T06:58:15;1.17;;;0.60;;
58141;SDS011;53186;47.382;18.904;2022-07-17T07:00:43;1.08;;;0.68;;
58141;SDS011;53186;47.382;18.904;2022-07-17T07:03:10;2.12;;;0.85;;
58141;SDS011;53186;47.382;18.904;2022-07-17T07:05:37;2.72;;;0.57;;
58141;SDS011;53186;47.382;18.904;2022-07-17T07:08:04;2.95;;;0.70;;
58141;SDS011;53186;47.382;18.904;2022-07-17T07:10:32;4.00;;;1.05;;
58141;SDS011;53186;47.382;18.904;2022-07-17T07:12:59;2.65;;;0.70;;
58141;SDS011;53186;47.382;18.904;2022-07-17T07:15:26;2.00;;;0.75;;
58141;SDS011;53186;47.382;18.904;2022-07-17T07:17:54;1.45;;;0.70;;
58141;SDS011;53186;47.382;18.904;2022-07-17T07:20:21;4.78;;;0.60;;
58141;SDS011;53186;47.382;18.904;2022-07-17T07:22:48;1.85;;;0.60;;
58141;SDS011;53186;47.382;18.904;2022-07-17T07:25:15;1.85;;;0.62;;
58141;SDS011;53186;47.382;18.904;2022-07-17T07:27:42;5.35;;;0.60;;
58141;SDS011;53186;47.382;18.904;2022-07-17T07:30:10;2.10;;;0.60;;
58141;SDS011;53186;47.382;18.904;2022-07-17T07:32:38;4.32;;;0.82;;
58141;SDS011;53186;47.382;18.904;2022-07-17T07:35:06;3.40;;;0.60;;
58141;SDS011;53186;47.382;18.904;2022-07-17T07:37:34;2.78;;;0.60;;
58141;SDS011;53186;47.382;18.904;2022-07-17T07:40:02;1.48;;;0.50;;
58141;SDS011;53186;47.382;18.904;2022-07-17T07:42:30;2.30;;;0.60;;
58141;SDS011;53186;47.382;18.904;2022-07-17T07:44:57;3.62;;;0.55;;
58141;SDS011;53186;47.382;18.904;2022-07-17T07:47:24;2.50;;;0.60;;
58141;SDS011;53186;47.382;18.904;2022-07-17T07:49:52;1.30;;;0.40;;
58141;SDS011;53186;47.382;18.904;2022-07-17T07:52:19;1.83;;;0.55;;
58141;SDS011;53186;47.382;18.904;2022-07-17T07:54:46;1.52;;;0.70;;
58141;SDS011;53186;47.382;18.904;2022-07-17T07:57:13;2.25;;;0.52;;
58141;SDS011;53186;47.382;18.904;2022-07-17T07:59:41;1.33;;;0.52;;
58141;SDS011;53186;47.382;18.904;2022-07-17T08:02:09;6.85;;;0.55;;
58141;SDS011;53186;47.382;18.904;2022-07-17T08:04:36;1.98;;;0.70;;
58141;SDS011;53186;47.382;18.904;2022-07-17T08:07:03;1.20;;;0.70;;
58141;SDS011;53186;47.382;18.904;2022-07-17T08:09:30;2.70;;;0.80;;
58141;SDS011;53186;47.382;18.904;2022-07-17T08:11:58;1.25;;;0.62;;
58141;SDS011;53186;47.382;18.904;2022-07-17T08:14:35;4.87;;;0.80;;
58141;SDS011;53186;47.382;18.904;2022-07-17T08:17:03;1.80;;;0.80;;
58141;SDS011;53186;47.382;18.904;2022-07-17T08:19:30;3.78;;;0.80;;
58141;SDS011;53186;47.382;18.904;2022-07-17T08:21:57;3.70;;;1.00;;
58141;SDS011;53186;47.382;18.904;2022-07-17T08:24:25;8.40;;;1.00;;
58141;SDS011;53186;47.382;18.904;2022-07-17T08:26:52;5.03;;;0.80;;
58141;SDS011;53186;47.382;18.904;2022-07-17T08:29:19;3.28;;;0.68;;
58141;SDS011;53186;47.382;18.904;2022-07-17T08:32:06;3.37;;;0.70;;
58141;SDS011;53186;47.382;18.904;2022-07-17T08:34:34;1.75;;;0.52;;
58141;SDS011;53186;47.382;18.904;2022-07-17T08:37:01;1.17;;;0.60;;
58141;SDS011;53186;47.382;18.904;2022-07-17T08:39:28;1.60;;;0.47;;
58141;SDS011;53186;47.382;18.904;2022-07-17T08:41:55;1.55;;;0.55;;
58141;SDS011;53186;47.382;18.904;2022-07-17T08:44:23;2.35;;;0.62;;
58141;SDS011;53186;47.382;18.904;2022-07-17T08:46:50;2.35;;;0.70;;
58141;SDS011;53186;47.382;18.904;2022-07-17T08:49:20;1.80;;;0.70;;
58141;SDS011;53186;47.382;18.904;2022-07-17T08:51:49;3.00;;;0.90;;
58141;SDS011;53186;47.382;18.904;2022-07-17T08:54:16;2.53;;;0.65;;
58141;SDS011;53186;47.382;18.904;2022-07-17T08:56:44;2.30;;;0.80;;
58141;SDS011;53186;47.382;18.904;2022-07-17T08:59:12;2.03;;;0.70;;
58141;SDS011;53186;47.382;18.904;2022-07-17T09:01:39;3.08;;;0.80;;
58141;SDS011;53186;47.382;18.904;2022-07-17T09:04:06;2.53;;;0.60;;
58141;SDS011;53186;47.382;18.904;2022-07-17T09:06:36;2.90;;;0.85;;
58141;SDS011;53186;47.382;18.904;2022-07-17T09:09:08;3.47;;;0.80;;
58141;SDS011;53186;47.382;18.904;2022-07-17T09:11:44;6.00;;;0.70;;
58141;SDS011;53186;47.382;18.904;2022-07-17T09:14:15;2.22;;;0.70;;
58141;SDS011;53186;47.382;18.904;2022-07-17T09:16:51;2.62;;;1.17;;
58141;SDS011;53186;47.382;18.904;2022-07-17T09:20:12;2.60;;;0.80;;
58141;SDS011;53186;47.382;18.904;2022-07-17T09:22:15;3.28;;;0.60;;
58141;SDS011;53186;47.382;18.904;2022-07-17T09:27:29;1.25;;;0.50;;
58141;SDS011;53186;47.382;18.904;2022-07-17T09:30:04;2.97;;;0.60;;
58141;SDS011;53186;47.382;18.904;2022-07-17T09:32:34;2.87;;;1.10;;
58141;SDS011;53186;47.382;18.904;2022-07-17T09:35:05;2.65;;;0.70;;
58141;SDS011;53186;47.382;18.904;2022-07-17T09:37:34;5.97;;;0.80;;
58141;SDS011;53186;47.382;18.904;2022-07-17T09:40:03;2.70;;;0.62;;
58141;SDS011;53186;47.382;18.904;2022-07-17T09:42:36;2.97;;;1.23;;
58141;SDS011;53186;47.382;18.904;2022-07-17T09:45:04;1.67;;;0.60;;
58141;SDS011;53186;47.382;18.904;2022-07-17T09:47:33;2.75;;;0.70;;
58141;SDS011;53186;47.382;18.904;2022-07-17T09:50:03;2.78;;;0.85;;
58141;SDS011;53186;47.382;18.904;2022-07-17T09:52:32;2.90;;;0.75;;
58141;SDS011;53186;47.382;18.904;2022-07-17T09:55:02;2.78;;;0.73;;
58141;SDS011;53186;47.382;18.904;2022-07-17T09:57:50;1.45;;;0.65;;
58141;SDS011;53186;47.382;18.904;2022-07-17T10:00:21;4.10;;;0.70;;
58141;SDS011;53186;47.382;18.904;2022-07-17T10:02:50;2.83;;;0.60;;
58141;SDS011;53186;47.382;18.904;2022-07-17T10:05:18;2.28;;;0.80;;
58141;SDS011;53186;47.382;18.904;2022-07-17T10:07:45;1.98;;;0.70;;
58141;SDS011;53186;47.382;18.904;2022-07-17T10:10:14;2.42;;;0.80;;
58141;SDS011;53186;47.382;18.904;2022-07-17T10:12:43;4.30;;;0.80;;
58141;SDS011;53186;47.382;18.904;2022-07-17T10:15:11;6.65;;;0.57;;
58141;SDS011;53186;47.382;18.904;2022-07-17T10:17:39;4.62;;;0.70;;
58141;SDS011;53186;47.382;18.904;2022-07-17T10:20:12;3.47;;;0.70;;
58141;SDS011;53186;47.382;18.904;2022-07-17T10:22:42;2.72;;;0.65;;
58141;SDS011;53186;47.382;18.904;2022-07-17T10:25:13;2.60;;;0.88;;
58141;SDS011;53186;47.382;18.904;2022-07-17T10:27:46;4.10;;;0.90;;
58141;SDS011;53186;47.382;18.904;2022-07-17T10:30:19;2.00;;;0.70;;
58141;SDS011;53186;47.382;18.904;2022-07-17T10:32:56;3.28;;;0.82;;
58141;SDS011;53186;47.382;18.904;2022-07-17T10:35:27;2.53;;;0.62;;
58141;SDS011;53186;47.382;18.904;2022-07-17T10:38:09;5.35;;;0.80;;
58141;SDS011;53186;47.382;18.904;2022-07-17T10:40:38;1.65;;;0.60;;
58141;SDS011;53186;47.382;18.904;2022-07-17T10:43:06;1.33;;;0.70;;
58141;SDS011;53186;47.382;18.904;2022-07-17T10:45:38;4.30;;;0.65;;
58141;SDS011;53186;47.382;18.904;2022-07-17T10:48:19;3.10;;;0.80;;
58141;SDS011;53186;47.382;18.904;2022-07-17T10:50:48;2.40;;;0.70;;
58141;SDS011;53186;47.382;18.904;2022-07-17T10:56:10;1.90;;;0.80;;
58141;SDS011;53186;47.382;18.904;2022-07-17T10:58:41;4.30;;;0.68;;
58141;SDS011;53186;47.382;18.904;2022-07-17T11:01:17;2.28;;;0.68;;
58141;SDS011;53186;47.382;18.904;2022-07-17T11:03:49;1.45;;;0.50;;
58141;SDS011;53186;47.382;18.904;2022-07-17T11:08:52;3.33;;;0.70;;
58141;SDS011;53186;47.382;18.904;2022-07-17T11:11:34;2.72;;;0.70;;
58141;SDS011;53186;47.382;18.904;2022-07-17T11:14:22;2.78;;;0.60;;
58141;SDS011;53186;47.382;18.904;2022-07-17T11:16:55;1.87;;;0.60;;
58141;SDS011;53186;47.382;18.904;2022-07-17T11:19:25;1.65;;;0.60;;
58141;SDS011;53186;47.382;18.904;2022-07-17T11:21:53;1.45;;;0.60;;
58141;SDS011;53186;47.382;18.904;2022-07-17T11:24:21;4.85;;;0.70;;
58141;SDS011;53186;47.382;18.904;2022-07-17T11:26:48;1.48;;;0.52;;
58141;SDS011;53186;47.382;18.904;2022-07-17T11:29:17;4.35;;;0.50;;
58141;SDS011;53186;47.382;18.904;2022-07-17T11:31:44;1.20;;;0.70;;
58141;SDS011;53186;47.382;18.904;2022-07-17T11:34:12;4.45;;;0.68;;
58141;SDS011;53186;47.382;18.904;2022-07-17T11:36:43;4.75;;;0.80;;
58141;SDS011;53186;47.382;18.904;2022-07-17T11:44:11;2.15;;;0.60;;
58141;SDS011;53186;47.382;18.904;2022-07-17T11:46:44;3.00;;;0.60;;
58141;SDS011;53186;47.382;18.904;2022-07-17T11:49:29;1.12;;;0.52;;
58141;SDS011;53186;47.382;18.904;2022-07-17T11:51:58;3.05;;;0.80;;
58141;SDS011;53186;47.382;18.904;2022-07-17T11:54:26;1.77;;;0.50;;
58141;SDS011;53186;47.382;18.904;2022-07-17T11:56:55;2.67;;;0.50;;
58141;SDS011;53186;47.382;18.904;2022-07-17T11:59:29;4.15;;;0.70;;
58141;SDS011;53186;47.382;18.904;2022-07-17T12:02:07;1.55;;;0.62;;
58141;SDS011;53186;47.382;18.904;2022-07-17T12:04:47;1.37;;;0.60;;
58141;SDS011;53186;47.382;18.904;2022-07-17T12:07:20;2.00;;;0.67;;
58141;SDS011;53186;47.382;18.904;2022-07-17T12:09:50;2.83;;;0.75;;
58141;SDS011;53186;47.382;18.904;2022-07-17T12:12:22;3.00;;;0.65;;
58141;SDS011;53186;47.382;18.904;2022-07-17T12:14:54;2.33;;;0.70;;
58141;SDS011;53186;47.382;18.904;2022-07-17T12:17:24;3.15;;;0.62;;
58141;SDS011;53186;47.382;18.904;2022-07-17T12:19:53;1.95;;;0.60;;
58141;SDS011;53186;47.382;18.904;2022-07-17T12:22:20;8.40;;;1.02;;
58141;SDS011;53186;47.382;18.904;2022-07-17T12:24:47;1.95;;;0.62;;
58141;SDS011;53186;47.382;18.904;2022-07-17T12:27:15;1.85;;;0.70;;
58141;SDS011;53186;47.382;18.904;2022-07-17T12:29:43;4.35;;;0.75;;
58141;SDS011;53186;47.382;18.904;2022-07-17T12:32:12;1.90;;;0.50;;
58141;SDS011;53186;47.382;18.904;2022-07-17T12:34:44;8.38;;;0.60;;
58141;SDS011;53186;47.382;18.904;2022-07-17T12:37:16;4.45;;;0.55;;
58141;SDS011;53186;47.382;18.904;2022-07-17T12:39:45;1.75;;;0.60;;
58141;SDS011;53186;47.382;18.904;2022-07-17T12:42:14;2.00;;;0.60;;
58141;SDS011;53186;47.382;18.904;2022-07-17T12:44:42;3.12;;;0.82;;
58141;SDS011;53186;47.382;18.904;2022-07-17T12:47:11;2.75;;;0.70;;
58141;SDS011;53186;47.382;18.904;2022-07-17T12:49:38;2.35;;;0.73;;
58141;SDS011;53186;47.382;18.904;2022-07-17T12:52:08;1.98;;;0.73;;
58141;SDS011;53186;47.382;18.904;2022-07-17T12:54:35;1.58;;;0.45;;
58141;SDS011;53186;47.382;18.904;2022-07-17T12:57:02;2.83;;;0.75;;
58141;SDS011;53186;47.382;18.904;2022-07-17T12:59:29;2.50;;;0.50;;
58141;SDS011;53186;47.382;18.904;2022-07-17T13:01:57;2.85;;;0.47;;
58141;SDS011;53186;47.382;18.904;2022-07-17T13:04:25;2.28;;;0.75;;
58141;SDS011;53186;47.382;18.904;2022-07-17T13:06:53;1.95;;;0.60;;
58141;SDS011;53186;47.382;18.904;2022-07-17T13:09:20;2.03;;;0.60;;
58141;SDS011;53186;47.382;18.904;2022-07-17T13:11:47;4.53;;;0.60;;
58141;SDS011;53186;47.382;18.904;2022-07-17T13:14:14;4.43;;;0.62;;
58141;SDS011;53186;47.382;18.904;2022-07-17T13:16:44;1.85;;;0.73;;
58141;SDS011;53186;47.382;18.904;2022-07-17T13:19:11;3.22;;;0.68;;
58141;SDS011;53186;47.382;18.904;2022-07-17T13:21:38;1.52;;;0.60;;
58141;SDS011;53186;47.382;18.904;2022-07-17T13:24:06;3.78;;;0.75;;
58141;SDS011;53186;47.382;18.904;2022-07-17T13:26:33;5.07;;;0.80;;
58141;SDS011;53186;47.382;18.904;2022-07-17T13:29:01;1.48;;;0.55;;
58141;SDS011;53186;47.382;18.904;2022-07-17T13:31:29;1.67;;;0.70;;
58141;SDS011;53186;47.382;18.904;2022-07-17T13:33:56;4.28;;;0.70;;
58141;SDS011;53186;47.382;18.904;2022-07-17T13:36:23;1.45;;;0.43;;
58141;SDS011;53186;47.382;18.904;2022-07-17T13:38:51;2.47;;;0.50;;
58141;SDS011;53186;47.382;18.904;2022-07-17T13:41:18;3.00;;;0.80;;
58141;SDS011;53186;47.382;18.904;2022-07-17T13:43:45;1.20;;;0.45;;
58141;SDS011;53186;47.382;18.904;2022-07-17T13:46:12;1.98;;;0.50;;
58141;SDS011;53186;47.382;18.904;2022-07-17T13:48:39;1.95;;;0.50;;
58141;SDS011;53186;47.382;18.904;2022-07-17T13:51:07;1.20;;;0.50;;
58141;SDS011;53186;47.382;18.904;2022-07-17T13:53:34;1.48;;;0.50;;
58141;SDS011;53186;47.382;18.904;2022-07-17T13:56:03;3.25;;;0.70;;
58141;SDS011;53186;47.382;18.904;2022-07-17T13:58:30;2.80;;;0.50;;
58141;SDS011;53186;47.382;18.904;2022-07-17T14:00:59;1.37;;;0.68;;
58141;SDS011;53186;47.382;18.904;2022-07-17T14:03:28;1.50;;;0.55;;
58141;SDS011;53186;47.382;18.904;2022-07-17T14:05:55;2.28;;;0.57;;
58141;SDS011;53186;47.382;18.904;2022-07-17T14:08:23;5.60;;;0.80;;
58141;SDS011;53186;47.382;18.904;2022-07-17T14:10:50;2.75;;;0.55;;
58141;SDS011;53186;47.382;18.904;2022-07-17T14:13:18;1.52;;;0.50;;
58141;SDS011;53186;47.382;18.904;2022-07-17T14:15:45;1.70;;;0.60;;
58141;SDS011;53186;47.382;18.904;2022-07-17T14:18:13;4.00;;;0.57;;
58141;SDS011;53186;47.382;18.904;2022-07-17T14:20:40;1.58;;;0.60;;
58141;SDS011;53186;47.382;18.904;2022-07-17T14:23:07;1.45;;;0.50;;
58141;SDS011;53186;47.382;18.904;2022-07-17T14:25:35;2.75;;;0.52;;
58141;SDS011;53186;47.382;18.904;2022-07-17T14:28:09;4.82;;;1.37;;
58141;SDS011;53186;47.382;18.904;2022-07-17T14:30:37;2.25;;;0.88;;
58141;SDS011;53186;47.382;18.904;2022-07-17T14:33:04;5.15;;;0.70;;
58141;SDS011;53186;47.382;18.904;2022-07-17T14:35:34;1.75;;;0.60;;
58141;SDS011;53186;47.382;18.904;2022-07-17T14:38:03;2.45;;;0.77;;
58141;SDS011;53186;47.382;18.904;2022-07-17T14:40:33;0.98;;;0.50;;
58141;SDS011;53186;47.382;18.904;2022-07-17T14:43:00;0.75;;;0.40;;
58141;SDS011;53186;47.382;18.904;2022-07-17T14:45:27;2.85;;;0.70;;
58141;SDS011;53186;47.382;18.904;2022-07-17T14:47:55;4.12;;;0.55;;
58141;SDS011;53186;47.382;18.904;2022-07-17T14:50:22;1.17;;;0.50;;
58141;SDS011;53186;47.382;18.904;2022-07-17T14:52:49;2.12;;;0.57;;
58141;SDS011;53186;47.382;18.904;2022-07-17T14:55:16;4.25;;;0.70;;